createdAt,value
2017-08-21T00:00:30.315Z,56.57
2017-08-21T00:01:10.765Z,56.57
2017-08-21T00:01:51.222Z,56.37
2017-08-21T00:02:31.684Z,56.57
2017-08-21T00:03:12.131Z,56.57
2017-08-21T00:03:52.577Z,56.57
2017-08-21T00:04:33.040Z,56.57
2017-08-21T00:05:13.494Z,56.83
2017-08-21T00:05:53.948Z,56.67
2017-08-21T00:06:34.406Z,56.67
2017-08-21T00:07:14.866Z,56.47
2017-08-21T00:07:55.352Z,56.54
2017-08-21T00:08:35.806Z,56.63
2017-08-21T00:09:16.259Z,56.54
2017-08-21T00:09:56.708Z,56.54
2017-08-21T00:10:37.176Z,56.67
2017-08-21T00:11:17.628Z,56.57
2017-08-21T00:11:58.077Z,56.54
2017-08-21T00:12:38.536Z,56.54
2017-08-21T00:13:18.989Z,56.54
2017-08-21T00:13:59.438Z,56.73
2017-08-21T00:14:39.899Z,56.86
2017-08-21T00:15:20.346Z,56.83
2017-08-21T00:16:00.805Z,56.63
2017-08-21T00:16:41.263Z,56.73
2017-08-21T00:17:21.725Z,56.93
2017-08-21T00:18:02.176Z,56.63
2017-08-21T00:18:42.646Z,56.54
2017-08-21T00:19:23.098Z,56.54
2017-08-21T00:20:03.555Z,56.63
2017-08-21T00:20:44.010Z,57.21
2017-08-21T00:21:24.473Z,57.03
2017-08-21T00:22:04.937Z,57.03
2017-08-21T00:22:45.387Z,57.03
2017-08-21T00:23:25.837Z,56.83
2017-08-21T00:24:06.273Z,56.93
2017-08-21T00:24:46.701Z,56.83
2017-08-21T00:25:27.098Z,57.03
2017-08-21T00:26:07.524Z,56.73
2017-08-21T00:26:47.933Z,56.83
2017-08-21T00:27:28.345Z,57.03
2017-08-21T00:28:08.741Z,56.83
2017-08-21T00:28:49.171Z,57.31
2017-08-21T00:29:29.583Z,56.93
2017-08-21T00:30:10.031Z,56.93
2017-08-21T00:30:50.429Z,57.41
2017-08-21T00:31:30.866Z,57.12
2017-08-21T00:32:11.264Z,57.21
2017-08-21T00:32:51.702Z,57.12
2017-08-21T00:33:32.120Z,57.12
2017-08-21T00:34:12.555Z,57.31
2017-08-21T00:34:52.943Z,57.12
2017-08-21T00:35:33.401Z,57.21
2017-08-21T00:36:13.855Z,57.12
2017-08-21T00:36:54.312Z,56.93
2017-08-21T00:37:34.762Z,56.93
2017-08-21T00:38:15.223Z,56.93
2017-08-21T00:38:55.690Z,57.21
2017-08-21T00:39:36.153Z,57.03
2017-08-21T00:40:16.603Z,57.12
2017-08-21T00:40:57.065Z,57.03
2017-08-21T00:41:37.526Z,57.12
2017-08-21T00:42:17.978Z,56.93
2017-08-21T00:42:58.424Z,56.93
2017-08-21T00:43:38.892Z,56.73
2017-08-21T00:44:19.341Z,56.73
2017-08-21T00:44:59.798Z,56.93
2017-08-21T00:45:40.261Z,57.03
2017-08-21T00:46:20.722Z,57.21
2017-08-21T00:47:01.193Z,57.31
2017-08-21T00:47:41.647Z,57.41
2017-08-21T00:48:22.104Z,57.21
2017-08-21T00:49:02.564Z,57.21
2017-08-21T00:49:43.012Z,57.51
2017-08-21T00:50:23.473Z,57.21
2017-08-21T00:51:03.934Z,57.21
2017-08-21T00:51:44.387Z,57.89
2017-08-21T00:52:24.908Z,57.7
2017-08-21T00:53:05.338Z,57.89
2017-08-21T00:53:45.791Z,57.79
2017-08-21T00:54:26.260Z,57.89
2017-08-21T00:55:06.723Z,57.6
2017-08-21T00:55:47.177Z,57.7
2017-08-21T00:56:27.640Z,57.51
2017-08-21T00:57:08.143Z,57.7
2017-08-21T00:57:48.534Z,57.7
2017-08-21T00:58:29.009Z,57.7
2017-08-21T00:59:09.450Z,57.7
2017-08-21T00:59:51.169Z,57.7
2017-08-21T01:00:31.255Z,57.51
2017-08-21T01:01:11.712Z,57.6
2017-08-21T01:01:52.163Z,57.41
2017-08-21T01:02:33.010Z,57.6
2017-08-21T01:03:13.461Z,57.6
2017-08-21T01:03:53.922Z,57.51
2017-08-21T01:04:34.373Z,57.31
2017-08-21T01:05:14.842Z,57.51
2017-08-21T01:05:55.363Z,57.31
2017-08-21T01:06:35.805Z,57.31
2017-08-21T01:07:16.254Z,57.41
2017-08-21T01:07:56.715Z,57.6
2017-08-21T01:08:37.165Z,57.41
2017-08-21T01:09:17.613Z,57.41
2017-08-21T01:09:58.052Z,57.51
2017-08-21T01:10:38.504Z,57.41
2017-08-21T01:11:18.954Z,57.41
2017-08-21T01:11:59.406Z,57.41
2017-08-21T01:12:39.866Z,57.21
2017-08-21T01:13:20.325Z,57.41
2017-08-21T01:14:00.778Z,57.31
2017-08-21T01:14:41.225Z,57.41
2017-08-21T01:15:21.683Z,57.31
2017-08-21T01:16:02.132Z,57.6
2017-08-21T01:16:42.590Z,57.41
2017-08-21T01:17:23.042Z,57.6
2017-08-21T01:18:03.501Z,57.6
2017-08-21T01:18:43.984Z,57.7
2017-08-21T01:19:24.441Z,57.7
2017-08-21T01:20:04.897Z,57.7
2017-08-21T01:20:45.351Z,57.7
2017-08-21T01:21:25.811Z,57.7
2017-08-21T01:22:06.276Z,57.51
2017-08-21T01:22:46.730Z,57.51
2017-08-21T01:23:27.205Z,57.99
2017-08-21T01:24:07.661Z,57.51
2017-08-21T01:24:48.118Z,57.6
2017-08-21T01:25:28.572Z,57.6
2017-08-21T01:26:09.024Z,57.41
2017-08-21T01:26:49.481Z,57.79
2017-08-21T01:27:29.952Z,57.99
2017-08-21T01:28:10.407Z,57.99
2017-08-21T01:28:50.856Z,57.51
2017-08-21T01:29:31.306Z,57.89
2017-08-21T01:30:11.765Z,57.79
2017-08-21T01:30:52.219Z,57.89
2017-08-21T01:31:32.678Z,57.89
2017-08-21T01:32:13.143Z,57.89
2017-08-21T01:32:53.596Z,57.89
2017-08-21T01:33:34.037Z,57.89
2017-08-21T01:34:14.491Z,57.79
2017-08-21T01:34:54.940Z,57.79
2017-08-21T01:35:35.396Z,57.89
2017-08-21T01:36:15.856Z,57.79
2017-08-21T01:36:56.304Z,57.79
2017-08-21T01:37:36.757Z,57.79
2017-08-21T01:38:17.212Z,57.89
2017-08-21T01:38:57.673Z,57.89
2017-08-21T01:39:38.135Z,57.99
2017-08-21T01:40:18.586Z,57.89
2017-08-21T01:40:59.052Z,57.99
2017-08-21T01:41:39.519Z,57.6
2017-08-21T01:42:19.947Z,57.79
2017-08-21T01:43:00.396Z,57.7
2017-08-21T01:43:40.855Z,57.7
2017-08-21T01:44:21.314Z,57.99
2017-08-21T01:45:01.771Z,57.89
2017-08-21T01:45:42.218Z,57.99
2017-08-21T01:46:22.698Z,57.99
2017-08-21T01:47:03.153Z,57.99
2017-08-21T01:47:43.589Z,58.09
2017-08-21T01:48:24.041Z,57.99
2017-08-21T01:49:04.493Z,58.18
2017-08-21T01:49:44.939Z,58.18
2017-08-21T01:50:25.381Z,57.79
2017-08-21T01:51:05.840Z,58.18
2017-08-21T01:51:46.304Z,57.99
2017-08-21T01:52:26.774Z,57.99
2017-08-21T01:53:07.222Z,57.79
2017-08-21T01:53:47.670Z,57.89
2017-08-21T01:54:28.118Z,57.79
2017-08-21T01:55:08.565Z,58.09
2017-08-21T01:55:49.028Z,57.79
2017-08-21T01:56:29.479Z,57.79
2017-08-21T01:57:09.932Z,57.89
2017-08-21T01:57:50.476Z,57.79
2017-08-21T01:58:30.930Z,57.7
2017-08-21T01:59:11.382Z,57.7
2017-08-21T01:59:51.838Z,57.7
2017-08-21T02:00:32.304Z,57.7
2017-08-21T02:01:12.762Z,57.99
2017-08-21T02:01:53.227Z,57.89
2017-08-21T02:02:33.675Z,57.99
2017-08-21T02:03:14.117Z,57.89
2017-08-21T02:03:54.561Z,57.7
2017-08-21T02:04:35.017Z,57.7
2017-08-21T02:05:15.473Z,57.79
2017-08-21T02:05:55.934Z,57.99
2017-08-21T02:06:36.390Z,57.89
2017-08-21T02:07:16.856Z,57.79
2017-08-21T02:07:57.309Z,58.18
2017-08-21T02:08:37.763Z,57.6
2017-08-21T02:09:18.210Z,58.09
2017-08-21T02:09:58.655Z,58.09
2017-08-21T02:10:39.117Z,57.99
2017-08-21T02:11:19.577Z,57.89
2017-08-21T02:12:00.033Z,57.96
2017-08-21T02:12:40.492Z,57.89
2017-08-21T02:13:20.960Z,58.18
2017-08-21T02:14:01.427Z,58.18
2017-08-21T02:14:41.891Z,58.18
2017-08-21T02:15:22.345Z,57.99
2017-08-21T02:16:02.804Z,58.28
2017-08-21T02:16:43.263Z,57.99
2017-08-21T02:17:23.721Z,57.89
2017-08-21T02:18:04.170Z,57.99
2017-08-21T02:18:44.660Z,57.89
2017-08-21T02:19:25.162Z,58.09
2017-08-21T02:20:05.584Z,57.87
2017-08-21T02:20:46.043Z,57.89
2017-08-21T02:21:26.502Z,57.89
2017-08-21T02:22:06.960Z,57.89
2017-08-21T02:22:47.419Z,57.89
2017-08-21T02:23:27.874Z,57.7
2017-08-21T02:24:08.325Z,57.77
2017-08-21T02:24:48.783Z,58.35
2017-08-21T02:25:29.271Z,58.06
2017-08-21T02:26:09.710Z,57.79
2017-08-21T02:26:50.167Z,57.87
2017-08-21T02:27:30.613Z,58.09
2017-08-21T02:28:11.064Z,57.89
2017-08-21T02:28:51.522Z,58.35
2017-08-21T02:29:31.983Z,58.35
2017-08-21T02:30:12.436Z,58.28
2017-08-21T02:30:52.885Z,58.15
2017-08-21T02:31:33.337Z,58.28
2017-08-21T02:32:13.782Z,58.25
2017-08-21T02:32:54.245Z,58.37
2017-08-21T02:33:34.682Z,58.25
2017-08-21T02:34:15.128Z,58.37
2017-08-21T02:34:55.626Z,58.45
2017-08-21T02:35:36.077Z,58.45
2017-08-21T02:36:16.530Z,58.45
2017-08-21T02:36:57.009Z,58.35
2017-08-21T02:37:37.454Z,58.45
2017-08-21T02:38:17.917Z,58.35
2017-08-21T02:38:58.372Z,58.25
2017-08-21T02:39:38.839Z,58.35
2017-08-21T02:40:19.277Z,58.25
2017-08-21T02:40:59.734Z,58.25
2017-08-21T02:41:40.197Z,58.35
2017-08-21T02:42:20.656Z,58.25
2017-08-21T02:43:01.117Z,58.35
2017-08-21T02:43:41.572Z,58.15
2017-08-21T02:44:22.025Z,58.15
2017-08-21T02:45:02.487Z,58.18
2017-08-21T02:45:42.947Z,58.35
2017-08-21T02:46:23.395Z,58.15
2017-08-21T02:47:03.851Z,58.35
2017-08-21T02:47:44.342Z,58.35
2017-08-21T02:48:24.824Z,58.25
2017-08-21T02:49:05.272Z,58.28
2017-08-21T02:49:45.731Z,58.06
2017-08-21T02:50:26.177Z,58.35
2017-08-21T02:51:06.632Z,58.45
2017-08-21T02:51:47.091Z,58.15
2017-08-21T02:52:27.545Z,58.15
2017-08-21T02:53:07.982Z,58.15
2017-08-21T02:53:48.441Z,58.45
2017-08-21T02:54:28.894Z,58.25
2017-08-21T02:55:09.344Z,58.35
2017-08-21T02:55:49.801Z,58.15
2017-08-21T02:56:30.301Z,58.15
2017-08-21T02:57:10.770Z,58.15
2017-08-21T02:57:51.221Z,58.25
2017-08-21T02:58:31.677Z,58.25
2017-08-21T02:59:12.103Z,58.25
2017-08-21T02:59:52.572Z,58.35
2017-08-21T03:00:33.027Z,58.25
2017-08-21T03:01:13.475Z,58.25
2017-08-21T03:01:53.928Z,58.15
2017-08-21T03:02:34.399Z,58.15
2017-08-21T03:03:14.859Z,58.15
2017-08-21T03:05:07.459Z,58.25
2017-08-21T03:05:47.916Z,58.25
2017-08-21T03:06:28.370Z,58.25
2017-08-21T03:07:08.826Z,58.35
2017-08-21T03:07:49.282Z,58.15
2017-08-21T03:08:29.740Z,58.15
2017-08-21T03:09:10.196Z,58.25
2017-08-21T03:09:50.671Z,58.15
2017-08-21T03:10:31.123Z,58.25
2017-08-21T03:11:11.579Z,58.06
2017-08-21T03:11:52.025Z,58.45
2017-08-21T03:12:32.489Z,58.15
2017-08-21T03:13:12.925Z,58.15
2017-08-21T03:13:53.379Z,58.15
2017-08-21T03:14:33.835Z,58.25
2017-08-21T03:15:14.289Z,58.15
2017-08-21T03:15:54.741Z,58.25
2017-08-21T03:16:35.215Z,58.35
2017-08-21T03:17:15.671Z,58.45
2017-08-21T03:17:56.122Z,58.15
2017-08-21T03:18:36.577Z,58.15
2017-08-21T03:19:17.036Z,58.25
2017-08-21T03:19:57.490Z,58.35
2017-08-21T03:20:37.962Z,58.15
2017-08-21T03:21:18.423Z,58.25
2017-08-21T03:21:58.873Z,58.06
2017-08-21T03:22:39.330Z,58.35
2017-08-21T03:23:19.787Z,58.45
2017-08-21T03:24:00.242Z,58.15
2017-08-21T03:24:40.722Z,58.15
2017-08-21T03:25:21.169Z,58.45
2017-08-21T03:26:01.624Z,58.25
2017-08-21T03:26:42.076Z,58.25
2017-08-21T03:27:22.537Z,58.15
2017-08-21T03:28:02.985Z,58.25
2017-08-21T03:28:43.453Z,58.35
2017-08-21T03:29:23.903Z,58.35
2017-08-21T03:30:04.351Z,58.15
2017-08-21T03:30:44.805Z,58.35
2017-08-21T03:31:25.269Z,58.35
2017-08-21T03:32:05.730Z,58.15
2017-08-21T03:32:46.186Z,58.35
2017-08-21T03:33:26.642Z,58.15
2017-08-21T03:34:07.107Z,58.15
2017-08-21T03:34:47.572Z,58.06
2017-08-21T03:35:28.026Z,58.06
2017-08-21T03:36:08.484Z,58.35
2017-08-21T03:36:48.939Z,58.25
2017-08-21T03:37:29.404Z,58.35
2017-08-21T03:38:09.863Z,58.35
2017-08-21T03:38:50.339Z,58.25
2017-08-21T03:39:30.816Z,58.45
2017-08-21T03:40:11.302Z,58.06
2017-08-21T03:40:51.719Z,58.15
2017-08-21T03:41:32.174Z,58.25
2017-08-21T03:42:12.622Z,58.15
2017-08-21T03:42:53.195Z,58.15
2017-08-21T03:43:33.632Z,58.25
2017-08-21T03:44:14.074Z,58.45
2017-08-21T03:44:54.538Z,58.35
2017-08-21T03:45:34.965Z,58.73
2017-08-21T03:46:15.415Z,58.45
2017-08-21T03:46:55.855Z,58.83
2017-08-21T03:47:36.315Z,58.73
2017-08-21T03:48:16.766Z,58.73
2017-08-21T03:48:57.225Z,58.57
2017-08-21T03:49:37.669Z,58.54
2017-08-21T03:50:18.115Z,58.64
2017-08-21T03:50:58.573Z,58.64
2017-08-21T03:51:39.030Z,58.45
2017-08-21T03:52:19.482Z,58.35
2017-08-21T03:52:59.933Z,58.25
2017-08-21T03:53:40.388Z,58.35
2017-08-21T03:54:20.850Z,58.25
2017-08-21T03:55:01.281Z,58.28
2017-08-21T03:55:41.742Z,58.37
2017-08-21T03:56:22.215Z,58.57
2017-08-21T03:57:02.679Z,58.57
2017-08-21T03:57:43.150Z,58.93
2017-08-21T03:58:23.595Z,59.34
2017-08-21T03:59:04.046Z,59.05
2017-08-21T03:59:44.499Z,59.25
2017-08-21T04:00:24.956Z,59.12
2017-08-21T04:01:05.438Z,59.02
2017-08-21T04:01:45.860Z,59.15
2017-08-21T04:02:26.328Z,58.95
2017-08-21T04:03:06.781Z,59.15
2017-08-21T04:03:47.232Z,59.05
2017-08-21T04:04:27.692Z,59.25
2017-08-21T04:05:08.146Z,59.15
2017-08-21T04:05:48.609Z,58.95
2017-08-21T04:06:29.068Z,59.15
2017-08-21T04:07:09.521Z,59.15
2017-08-21T04:07:49.974Z,59.15
2017-08-21T04:08:30.443Z,59.05
2017-08-21T04:09:10.895Z,58.86
2017-08-21T04:09:51.346Z,58.95
2017-08-21T04:10:31.808Z,58.76
2017-08-21T04:11:12.283Z,58.95
2017-08-21T04:11:52.734Z,58.67
2017-08-21T04:12:33.188Z,58.76
2017-08-21T04:13:13.644Z,58.47
2017-08-21T04:13:54.100Z,58.47
2017-08-21T04:14:34.557Z,58.37
2017-08-21T04:15:15.017Z,58.67
2017-08-21T04:15:55.470Z,58.47
2017-08-21T04:16:35.921Z,58.76
2017-08-21T04:17:16.375Z,58.47
2017-08-21T04:17:56.834Z,58.86
2017-08-21T04:18:37.292Z,58.76
2017-08-21T04:19:17.754Z,58.47
2017-08-21T04:19:58.267Z,58.18
2017-08-21T04:20:38.710Z,58.09
2017-08-21T04:21:19.171Z,58.37
2017-08-21T04:21:59.620Z,58.18
2017-08-21T04:22:40.068Z,58.09
2017-08-21T04:23:20.524Z,58.47
2017-08-21T04:24:00.983Z,58.37
2017-08-21T04:24:41.445Z,58.37
2017-08-21T04:25:21.894Z,58.47
2017-08-21T04:26:02.347Z,58.47
2017-08-21T04:26:42.792Z,58.37
2017-08-21T04:27:23.239Z,58.37
2017-08-21T04:28:03.684Z,58.37
2017-08-21T04:28:44.134Z,58.37
2017-08-21T04:29:24.585Z,58.37
2017-08-21T04:30:05.035Z,58.28
2017-08-21T04:30:45.500Z,57.89
2017-08-21T04:33:03.415Z,57.7
2017-08-21T04:33:43.880Z,57.79
2017-08-21T04:34:24.335Z,57.7
2017-08-21T04:35:04.789Z,57.7
2017-08-21T04:35:45.230Z,57.7
2017-08-21T04:36:25.686Z,57.89
2017-08-21T04:37:06.144Z,57.79
2017-08-21T04:37:46.605Z,57.79
2017-08-21T04:38:27.059Z,58.28
2017-08-21T04:39:07.511Z,57.89
2017-08-21T04:39:47.960Z,58.18
2017-08-21T04:40:28.411Z,57.99
2017-08-21T04:41:08.880Z,58.18
2017-08-21T04:41:49.322Z,58.09
2017-08-21T04:42:29.771Z,57.89
2017-08-21T04:43:10.232Z,57.7
2017-08-21T04:43:50.673Z,57.79
2017-08-21T04:44:31.133Z,58.18
2017-08-21T04:45:11.582Z,58.18
2017-08-21T04:45:52.044Z,58.37
2017-08-21T04:46:32.481Z,58.47
2017-08-21T04:47:12.944Z,58.47
2017-08-21T04:47:53.392Z,58.37
2017-08-21T04:48:33.851Z,58.09
2017-08-21T04:49:14.317Z,58.28
2017-08-21T04:49:54.737Z,58.37
2017-08-21T04:51:42.256Z,58.37
2017-08-21T04:52:22.741Z,58.09
2017-08-21T04:53:03.165Z,58.28
2017-08-21T04:53:43.639Z,58.18
2017-08-21T04:54:24.090Z,58.09
2017-08-21T04:55:04.546Z,58.18
2017-08-21T04:55:45.007Z,58.18
2017-08-21T04:56:25.456Z,58.37
2017-08-21T04:57:05.904Z,58.18
2017-08-21T04:57:46.328Z,58.28
2017-08-21T04:58:26.777Z,58.47
2017-08-21T04:59:07.238Z,58.57
2017-08-21T04:59:47.691Z,58.57
2017-08-21T05:00:28.165Z,58.37
2017-08-21T05:01:08.615Z,58.47
2017-08-21T05:01:49.073Z,58.57
2017-08-21T05:02:29.561Z,58.76
2017-08-21T05:03:10.000Z,58.86
2017-08-21T05:03:50.430Z,58.73
2017-08-21T05:04:30.885Z,58.76
2017-08-21T05:05:11.334Z,58.76
2017-08-21T05:05:51.768Z,58.76
2017-08-21T05:06:32.207Z,58.67
2017-08-21T05:07:12.594Z,58.76
2017-08-21T05:07:52.999Z,58.67
2017-08-21T05:08:33.453Z,58.76
2017-08-21T05:09:13.899Z,58.47
2017-08-21T05:09:54.355Z,58.47
2017-08-21T05:10:34.805Z,58.37
2017-08-21T05:11:15.257Z,58.18
2017-08-21T05:11:55.719Z,58.18
2017-08-21T05:12:36.172Z,58.47
2017-08-21T05:13:16.617Z,58.18
2017-08-21T05:13:57.063Z,58.18
2017-08-21T05:15:49.660Z,58.57
2017-08-21T05:16:30.112Z,58.37
2017-08-21T05:17:10.565Z,58.09
2017-08-21T05:17:51.021Z,58.09
2017-08-21T05:18:31.481Z,58.28
2017-08-21T05:19:11.933Z,58.28
2017-08-21T05:19:52.382Z,58.09
2017-08-21T05:20:32.834Z,58.09
2017-08-21T05:21:13.298Z,58.37
2017-08-21T05:21:53.744Z,58.28
2017-08-21T05:22:34.194Z,58.18
2017-08-21T05:23:14.651Z,58.37
2017-08-21T05:23:55.092Z,58.28
2017-08-21T05:24:35.543Z,58.37
2017-08-21T05:25:15.994Z,58.18
2017-08-21T05:25:56.442Z,58.57
2017-08-21T05:26:36.892Z,58.28
2017-08-21T05:27:17.356Z,58.37
2017-08-21T05:27:57.794Z,58.37
2017-08-21T05:28:38.249Z,58.09
2017-08-21T05:29:18.700Z,58.37
2017-08-21T05:29:59.153Z,58.18
2017-08-21T05:30:39.615Z,58.18
2017-08-21T05:31:20.055Z,58.09
2017-08-21T05:32:00.499Z,58.18
2017-08-21T05:32:40.955Z,58.37
2017-08-21T05:33:21.405Z,58.09
2017-08-21T05:34:01.866Z,58.18
2017-08-21T05:34:42.320Z,58.28
2017-08-21T05:35:22.780Z,58.18
2017-08-21T05:36:03.260Z,58.28
2017-08-21T05:36:43.708Z,58.37
2017-08-21T05:37:24.164Z,58.37
2017-08-21T05:38:04.626Z,58.18
2017-08-21T05:38:45.074Z,58.18
2017-08-21T05:39:25.533Z,58.57
2017-08-21T05:40:05.997Z,58.47
2017-08-21T05:40:46.454Z,58.09
2017-08-21T05:41:26.890Z,58.18
2017-08-21T05:42:07.337Z,58.18
2017-08-21T05:42:47.790Z,58.09
2017-08-21T05:43:28.246Z,58.18
2017-08-21T05:44:08.707Z,58.18
2017-08-21T05:44:49.184Z,58.28
2017-08-21T05:45:29.626Z,58.28
2017-08-21T05:46:10.084Z,58.18
2017-08-21T05:48:07.826Z,58.47
2017-08-21T05:48:48.281Z,58.28
2017-08-21T05:49:28.728Z,58.18
2017-08-21T05:50:09.179Z,58.37
2017-08-21T05:50:49.633Z,58.37
2017-08-21T05:51:30.071Z,58.28
2017-08-21T05:53:27.710Z,58.28
2017-08-21T05:54:08.158Z,58.09
2017-08-21T05:54:48.614Z,58.47
2017-08-21T05:55:29.063Z,58.57
2017-08-21T05:56:09.517Z,58.47
2017-08-21T05:56:49.994Z,58.37
2017-08-21T05:57:30.479Z,58.28
2017-08-21T05:58:10.924Z,57.79
2017-08-21T05:58:51.363Z,57.79
2017-08-21T05:59:31.810Z,57.89
2017-08-21T06:00:12.253Z,57.89
2017-08-21T06:00:52.702Z,57.89
2017-08-21T06:01:33.151Z,57.7
2017-08-21T06:02:13.587Z,57.7
2017-08-21T06:02:54.039Z,57.79
2017-08-21T06:03:34.517Z,57.89
2017-08-21T06:04:14.970Z,57.7
2017-08-21T06:04:55.429Z,57.89
2017-08-21T06:05:35.885Z,57.89
2017-08-21T06:06:16.339Z,57.89
2017-08-21T06:06:56.797Z,57.7
2017-08-21T06:07:37.255Z,57.89
2017-08-21T06:08:17.708Z,57.7
2017-08-21T06:08:58.154Z,57.89
2017-08-21T06:09:38.611Z,57.89
2017-08-21T06:10:19.057Z,57.89
2017-08-21T06:10:59.507Z,57.89
2017-08-21T06:11:39.965Z,57.89
2017-08-21T06:12:20.427Z,57.89
2017-08-21T06:13:00.883Z,58.09
2017-08-21T06:13:41.331Z,57.99
2017-08-21T06:14:21.785Z,57.79
2017-08-21T06:15:02.240Z,57.99
2017-08-21T06:15:42.712Z,58.18
2017-08-21T06:16:23.172Z,57.99
2017-08-21T06:17:03.631Z,58.09
2017-08-21T06:17:44.080Z,58.09
2017-08-21T06:18:24.526Z,57.99
2017-08-21T06:19:04.982Z,57.99
2017-08-21T06:19:45.527Z,57.89
2017-08-21T06:20:25.974Z,58.09
2017-08-21T06:21:06.434Z,58.12
2017-08-21T06:21:46.886Z,58.09
2017-08-21T06:22:27.331Z,57.89
2017-08-21T06:23:07.788Z,58.09
2017-08-21T06:23:48.232Z,58.09
2017-08-21T06:24:28.689Z,57.79
2017-08-21T06:25:09.144Z,58.09
2017-08-21T06:25:49.595Z,57.7
2017-08-21T06:26:30.061Z,57.6
2017-08-21T06:27:10.528Z,57.92
2017-08-21T06:27:50.966Z,57.7
2017-08-21T06:28:31.426Z,57.92
2017-08-21T06:29:11.886Z,57.82
2017-08-21T06:29:52.346Z,58.02
2017-08-21T06:30:32.798Z,57.92
2017-08-21T06:31:13.258Z,58.02
2017-08-21T06:31:53.717Z,57.73
2017-08-21T06:32:34.172Z,57.92
2017-08-21T06:33:14.621Z,57.99
2017-08-21T06:33:55.086Z,57.82
2017-08-21T06:34:35.526Z,57.82
2017-08-21T06:35:15.965Z,58.31
2017-08-21T06:35:56.421Z,58.12
2017-08-21T06:36:36.865Z,58.02
2017-08-21T06:37:17.335Z,58.02
2017-08-21T06:37:57.799Z,57.63
2017-08-21T06:38:38.255Z,57.73
2017-08-21T06:39:18.714Z,57.82
2017-08-21T06:39:59.159Z,58.02
2017-08-21T06:40:39.608Z,58.12
2017-08-21T06:41:20.063Z,57.92
2017-08-21T06:42:00.513Z,57.92
2017-08-21T06:42:40.959Z,57.92
2017-08-21T06:43:21.424Z,57.82
2017-08-21T06:44:01.873Z,57.92
2017-08-21T06:44:42.321Z,57.63
2017-08-21T06:45:22.809Z,57.92
2017-08-21T06:46:03.260Z,57.73
2017-08-21T06:46:43.711Z,57.82
2017-08-21T06:47:24.163Z,57.63
2017-08-21T06:48:04.624Z,57.44
2017-08-21T06:48:45.085Z,57.54
2017-08-21T06:49:25.562Z,57.34
2017-08-21T06:50:06.004Z,57.34
2017-08-21T06:50:46.475Z,57.54
2017-08-21T06:51:26.934Z,57.54
2017-08-21T06:52:07.389Z,57.44
2017-08-21T06:52:47.839Z,57.54
2017-08-21T06:53:28.288Z,57.54
2017-08-21T06:54:08.740Z,57.34
2017-08-21T06:54:49.199Z,57.82
2017-08-21T06:55:29.657Z,57.82
2017-08-21T06:56:10.117Z,57.63
2017-08-21T06:56:50.576Z,56.95
2017-08-21T06:57:31.044Z,57.24
2017-08-21T06:58:11.476Z,57.18
2017-08-21T06:58:51.921Z,57.05
2017-08-21T06:59:32.378Z,56.7
2017-08-21T07:00:12.840Z,56.79
2017-08-21T07:00:53.290Z,56.79
2017-08-21T07:01:33.745Z,57.18
2017-08-21T07:02:14.245Z,57.08
2017-08-21T07:02:54.665Z,57.08
2017-08-21T07:03:35.111Z,57.18
2017-08-21T07:04:15.576Z,57.18
2017-08-21T07:04:56.032Z,56.98
2017-08-21T07:05:36.484Z,56.88
2017-08-21T07:06:16.943Z,57.28
2017-08-21T07:06:57.390Z,57.18
2017-08-21T07:07:37.836Z,57.18
2017-08-21T07:08:18.299Z,57.37
2017-08-21T07:08:58.754Z,56.98
2017-08-21T07:09:39.216Z,56.98
2017-08-21T07:10:19.675Z,56.98
2017-08-21T07:11:00.116Z,57.08
2017-08-21T07:11:40.568Z,57.08
2017-08-21T07:12:21.038Z,56.98
2017-08-21T07:13:01.487Z,56.98
2017-08-21T07:13:41.937Z,56.88
2017-08-21T07:14:22.384Z,56.79
2017-08-21T07:15:02.844Z,56.7
2017-08-21T07:15:43.300Z,56.98
2017-08-21T07:16:23.752Z,56.88
2017-08-21T07:17:04.192Z,56.88
2017-08-21T07:17:44.650Z,56.62
2017-08-21T07:18:25.123Z,56.6
2017-08-21T07:19:05.573Z,56.6
2017-08-21T07:19:46.032Z,56.5
2017-08-21T07:20:26.473Z,56.34
2017-08-21T07:21:06.909Z,56.04
2017-08-21T07:21:47.366Z,56.34
2017-08-21T07:22:27.829Z,56.14
2017-08-21T07:23:08.285Z,56.14
2017-08-21T07:23:48.746Z,56.24
2017-08-21T07:24:29.190Z,56.52
2017-08-21T07:25:09.648Z,56.43
2017-08-21T07:25:50.100Z,56.62
2017-08-21T07:26:30.597Z,56.52
2017-08-21T07:27:11.045Z,56.34
2017-08-21T07:27:51.501Z,56.43
2017-08-21T07:28:31.964Z,56.34
2017-08-21T07:29:12.419Z,56.34
2017-08-21T07:29:52.873Z,56.14
2017-08-21T07:30:33.321Z,56.43
2017-08-21T07:31:13.772Z,56.04
2017-08-21T07:31:54.227Z,56.24
2017-08-21T07:32:34.683Z,55.94
2017-08-21T07:33:15.136Z,55.94
2017-08-21T07:33:55.586Z,55.85
2017-08-21T07:34:36.066Z,56.14
2017-08-21T07:35:16.521Z,55.85
2017-08-21T07:35:56.977Z,55.66
2017-08-21T07:36:37.442Z,55.56
2017-08-21T07:37:17.890Z,55.68
2017-08-21T07:37:58.345Z,55.76
2017-08-21T07:38:38.814Z,55.66
2017-08-21T07:39:19.277Z,55.56
2017-08-21T07:39:59.757Z,55.76
2017-08-21T07:40:40.202Z,55.56
2017-08-21T07:41:20.662Z,55.94
2017-08-21T07:42:01.117Z,55.88
2017-08-21T07:42:41.575Z,55.88
2017-08-21T07:43:22.012Z,55.88
2017-08-21T07:44:02.491Z,55.85
2017-08-21T07:44:42.964Z,55.88
2017-08-21T07:45:23.412Z,56.14
2017-08-21T07:46:03.866Z,56.16
2017-08-21T07:46:44.326Z,56.04
2017-08-21T07:47:24.776Z,55.4
2017-08-21T07:48:05.237Z,55.4
2017-08-21T07:48:45.697Z,55.49
2017-08-21T07:51:03.620Z,55.58
2017-08-21T07:51:44.095Z,55.3
2017-08-21T07:52:24.568Z,55.49
2017-08-21T07:53:05.003Z,55.4
2017-08-21T07:53:45.452Z,55.68
2017-08-21T07:54:25.901Z,55.49
2017-08-21T07:55:06.351Z,55.4
2017-08-21T07:55:46.816Z,55.2
2017-08-21T07:56:27.274Z,55.58
2017-08-21T07:57:07.727Z,55.1
2017-08-21T07:57:48.182Z,55.4
2017-08-21T07:58:28.633Z,54.81
2017-08-21T07:59:09.138Z,55.1
2017-08-21T07:59:49.605Z,54.91
2017-08-21T08:00:30.070Z,55
2017-08-21T08:01:10.520Z,55.1
2017-08-21T08:01:51.021Z,55.22
2017-08-21T08:02:31.503Z,55.13
2017-08-21T08:03:11.956Z,55.2
2017-08-21T08:03:52.403Z,55
2017-08-21T08:04:32.872Z,55.04
2017-08-21T08:05:13.305Z,55.13
2017-08-21T08:07:05.962Z,55.32
2017-08-21T08:07:46.386Z,55.13
2017-08-21T08:08:26.831Z,54.55
2017-08-21T08:09:07.309Z,54.74
2017-08-21T08:09:47.717Z,54.64
2017-08-21T08:10:28.161Z,54.64
2017-08-21T08:11:08.615Z,54.45
2017-08-21T08:11:49.072Z,54.35
2017-08-21T08:12:29.527Z,54.35
2017-08-21T08:13:09.999Z,54.35
2017-08-21T08:13:50.447Z,54.55
2017-08-21T08:14:30.875Z,54.45
2017-08-21T08:15:11.314Z,54.35
2017-08-21T08:15:51.784Z,54.35
2017-08-21T08:16:32.209Z,54.45
2017-08-21T08:17:12.658Z,54.35
2017-08-21T08:17:53.117Z,54.45
2017-08-21T08:18:33.583Z,54.38
2017-08-21T08:19:13.974Z,54.09
2017-08-21T08:19:54.393Z,54.28
2017-08-21T08:20:34.849Z,54.26
2017-08-21T08:21:15.308Z,53.97
2017-08-21T08:21:55.771Z,54.19
2017-08-21T08:22:36.229Z,53.97
2017-08-21T08:23:16.683Z,53.8
2017-08-21T08:23:57.152Z,53.8
2017-08-21T08:24:37.608Z,54.19
2017-08-21T08:26:35.301Z,53.99
2017-08-21T08:27:15.787Z,54.28
2017-08-21T08:27:56.241Z,54.19
2017-08-21T08:28:36.710Z,54.28
2017-08-21T08:29:17.159Z,54.38
2017-08-21T08:29:57.614Z,54.09
2017-08-21T08:30:38.056Z,53.89
2017-08-21T08:31:18.517Z,53.8
2017-08-21T08:31:58.967Z,53.61
2017-08-21T08:32:39.415Z,53.8
2017-08-21T08:33:19.859Z,53.8
2017-08-21T08:34:00.296Z,53.99
2017-08-21T08:34:40.749Z,53.7
2017-08-21T08:35:21.212Z,53.7
2017-08-21T08:36:01.653Z,53.7
2017-08-21T08:36:42.107Z,53.99
2017-08-21T08:37:22.565Z,54.09
2017-08-21T08:38:03.019Z,53.51
2017-08-21T08:38:43.482Z,53.7
2017-08-21T08:39:23.936Z,53.63
2017-08-21T08:40:04.395Z,53.51
2017-08-21T08:40:44.848Z,53.24
2017-08-21T08:41:25.295Z,53.12
2017-08-21T08:42:05.740Z,53.15
2017-08-21T08:42:46.190Z,53.15
2017-08-21T08:43:26.646Z,52.95
2017-08-21T08:44:07.104Z,53.05
2017-08-21T08:44:47.556Z,53.34
2017-08-21T08:45:28.001Z,53.44
2017-08-21T08:46:08.452Z,52.95
2017-08-21T08:46:48.924Z,53.34
2017-08-21T08:47:29.368Z,53.53
2017-08-21T08:48:09.810Z,53.34
2017-08-21T08:48:50.257Z,53.44
2017-08-21T08:49:30.705Z,53.05
2017-08-21T08:50:11.156Z,53.24
2017-08-21T08:50:51.590Z,52.76
2017-08-21T08:51:32.035Z,52.95
2017-08-21T08:52:12.486Z,52.95
2017-08-21T08:52:52.931Z,52.76
2017-08-21T08:53:33.399Z,52.86
2017-08-21T08:54:13.842Z,52.76
2017-08-21T08:54:54.277Z,52.95